Time;durP1;ratioP1;P1;durP2;ratioP2;P2;SDS_P1;SDS_P2;PMS_P1;PMS_P2;Temp;Humidity;BMP_temperature;BMP_pressure;BME280_temperature;BME280_humidity;BME280_pressure;Samples;Min_cycle;Max_cycle;Signal;HPM_P1;HPM_P2
2023/04/09 00:02:10;;;;;;;10.80;7.65;;;5.50;99.90;;;;;;5045354;28;20083;-32
2023/04/09 00:04:35;;;;;;;;;;;5.50;99.90;;;;;;5044802;28;20501;-31
2023/04/09 00:07:01;;;;;;;11.25;6.88;;;5.50;99.90;;;;;;5045966;28;19909;-31
2023/04/09 00:09:26;;;;;;;9.80;6.55;;;5.40;99.90;;;;;;5042277;28;20642;-32
2023/04/09 00:11:52;;;;;;;11.75;7.38;;;5.40;99.90;;;;;;5050015;28;20056;-31
2023/04/09 00:14:17;;;;;;;10.65;7.78;;;5.30;99.90;;;;;;5035716;28;20034;-32
2023/04/09 00:16:43;;;;;;;12.15;7.60;;;5.30;99.90;;;;;;5047529;28;20519;-31
2023/04/09 00:19:10;;;;;;;11.02;7.30;;;5.30;99.90;;;;;;5043669;28;20056;-32
2023/04/09 00:21:36;;;;;;;13.25;7.78;;;5.40;99.90;;;;;;5040806;28;20032;-32
2023/04/09 00:24:02;;;;;;;10.65;7.60;;;5.40;99.90;;;;;;5036626;28;20407;-32
2023/04/09 00:26:27;;;;;;;10.60;7.00;;;5.40;99.90;;;;;;5044557;28;20033;-32
2023/04/09 00:28:54;;;;;;;11.43;7.13;;;5.50;99.90;;;;;;5040809;28;20040;-32
2023/04/09 00:31:19;;;;;;;12.73;7.97;;;5.50;99.90;;;;;;5041138;28;20118;-33
2023/04/09 00:33:45;;;;;;;11.77;7.53;;;5.50;99.90;;;;;;5042588;28;20061;-32
2023/04/09 00:36:10;;;;;;;12.93;7.97;;;5.50;99.90;;;;;;5050270;28;20105;-32
2023/04/09 00:38:36;;;;;;;12.45;7.78;;;5.40;99.90;;;;;;5047610;28;20029;-32
2023/04/09 00:41:02;;;;;;;13.30;7.70;;;5.40;99.90;;;;;;5040029;28;20163;-32
2023/04/09 00:43:27;;;;;;;11.32;7.63;;;5.40;99.90;;;;;;5042982;28;20025;-31
2023/04/09 00:45:53;;;;;;;10.68;7.10;;;5.30;99.90;;;;;;5038035;28;20044;-32
2023/04/09 00:48:19;;;;;;;12.68;7.28;;;5.30;99.90;;;;;;5049405;28;20052;-32
2023/04/09 00:50:45;;;;;;;12.38;8.02;;;5.30;99.90;;;;;;5043178;28;20033;-33
2023/04/09 00:53:11;;;;;;;13.35;8.05;;;5.20;99.90;;;;;;5045969;28;20475;-32
2023/04/09 00:55:40;;;;;;;11.15;7.72;;;5.30;99.90;;;;;;5044621;28;20082;-32
2023/04/09 00:58:06;;;;;;;;;;;5.20;99.90;;;;;;5044378;28;20044;-32
2023/04/09 01:00:31;;;;;;;11.18;7.82;;;5.20;99.90;;;;;;5045043;28;19905;-42
2023/04/09 01:02:59;;;;;;;11.50;7.40;;;5.20;99.90;;;;;;5044559;28;20343;-42
2023/04/09 01:05:36;;;;;;;15.05;8.95;;;5.30;99.90;;;;;;5047913;28;20151;-42
2023/04/09 01:08:23;;;;;;;11.95;7.65;;;5.20;99.90;;;;;;5055718;28;20025;-42
2023/04/09 01:11:01;;;;;;;12.40;8.30;;;5.10;99.90;;;;;;5043895;28;20573;-42
2023/04/09 01:13:39;;;;;;;14.20;8.88;;;5.00;99.90;;;;;;5044868;28;20041;-42
2023/04/09 01:16:06;;;;;;;14.60;8.40;;;5.00;99.90;;;;;;5038443;28;20029;-42
2023/04/09 01:18:41;;;;;;;12.57;8.10;;;5.00;99.90;;;;;;5042852;28;20037;-42
2023/04/09 01:21:15;;;;;;;11.60;7.13;;;5.10;99.90;;;;;;5038522;28;20067;-42
2023/04/09 01:23:59;;;;;;;8.38;6.00;;;5.10;99.90;;;;;;5044441;28;20498;-42
2023/04/09 01:27:04;;;;;;;9.85;6.50;;;5.10;99.90;;;;;;5036255;28;20071;-44
2023/04/09 01:29:32;;;;;;;8.45;5.80;;;5.10;99.90;;;;;;5029747;28;20080;-43
2023/04/09 01:31:59;;;;;;;9.23;6.55;;;5.10;99.90;;;;;;5038189;28;20068;-43
2023/04/09 01:34:27;;;;;;;11.00;6.45;;;5.00;99.90;;;;;;5037705;28;20068;-43
2023/04/09 01:36:56;;;;;;;10.45;6.32;;;5.00;99.90;;;;;;5041951;28;20030;-43
2023/04/09 01:39:22;;;;;;;11.20;6.50;;;4.90;99.90;;;;;;5042156;28;20083;-43
2023/04/09 01:41:49;;;;;;;8.07;6.53;;;4.90;99.90;;;;;;5044332;28;20562;-43
2023/04/09 01:44:16;;;;;;;9.68;6.43;;;4.90;99.90;;;;;;5060577;28;20475;-43
2023/04/09 01:46:42;;;;;;;9.27;5.50;;;4.80;99.90;;;;;;5041329;28;20028;-43
2023/04/09 01:49:09;;;;;;;10.98;6.55;;;4.80;99.90;;;;;;5036862;28;20034;-43
2023/04/09 01:51:36;;;;;;;19.02;9.65;;;4.80;99.90;;;;;;5039440;28;20401;-43
2023/04/09 01:54:03;;;;;;;88.03;28.77;;;4.90;99.90;;;;;;5042606;28;20048;-42
2023/04/09 01:56:41;;;;;;;38.63;16.23;;;4.80;99.90;;;;;;5046166;28;20056;-42
2023/04/09 01:59:07;;;;;;;;;;;4.90;99.90;;;;;;5044124;28;20091;-42
2023/04/09 02:01:37;;;;;;;18.77;10.43;;;4.90;99.90;;;;;;5035988;28;19940;-42
2023/04/09 02:04:08;;;;;;;17.02;9.30;;;4.90;99.90;;;;;;5040515;28;20053;-42
2023/04/09 02:07:00;;;;;;;16.00;8.77;;;5.00;99.90;;;;;;5038517;28;20041;-43
2023/04/09 02:09:29;;;;;;;9.27;6.50;;;5.00;99.90;;;;;;5047421;28;20087;-43
2023/04/09 02:12:01;;;;;;;9.40;6.28;;;5.00;99.90;;;;;;5039813;28;20486;-43
2023/04/09 02:14:28;;;;;;;9.50;6.55;;;5.10;99.90;;;;;;5059435;28;20056;-43
2023/04/09 02:16:53;;;;;;;9.38;6.53;;;5.00;99.90;;;;;;5049521;28;20394;-43
2023/04/09 02:19:19;;;;;;;8.18;5.55;;;5.00;99.90;;;;;;5047886;28;20313;-43
2023/04/09 02:21:45;;;;;;;10.68;6.97;;;5.00;99.90;;;;;;5038209;28;20491;-43
2023/04/09 02:24:11;;;;;;;11.60;6.95;;;5.00;99.90;;;;;;5052836;28;20537;-43
2023/04/09 02:26:36;;;;;;;11.35;7.07;;;5.00;99.90;;;;;;5044504;28;20104;-43
2023/04/09 02:29:02;;;;;;;9.27;6.60;;;5.00;99.90;;;;;;5049107;28;20369;-43
2023/04/09 02:31:27;;;;;;;11.25;6.78;;;5.10;99.90;;;;;;5042662;28;20095;-43
2023/04/09 02:33:54;;;;;;;9.40;6.50;;;5.00;99.90;;;;;;5047874;28;20052;-42
2023/04/09 02:36:19;;;;;;;9.75;7.43;;;5.00;99.90;;;;;;5047425;28;20051;-42
2023/04/09 02:38:45;;;;;;;9.35;5.90;;;5.00;99.90;;;;;;5045298;28;20029;-42
2023/04/09 02:41:11;;;;;;;9.65;6.45;;;4.90;99.90;;;;;;5044945;28;20029;-43
2023/04/09 02:43:36;;;;;;;9.73;6.00;;;5.00;99.90;;;;;;5061248;28;20591;-43
2023/04/09 02:46:02;;;;;;;8.35;6.00;;;4.90;99.90;;;;;;5043230;28;20131;-42
2023/04/09 02:48:28;;;;;;;9.45;6.20;;;4.90;99.90;;;;;;5047859;28;20116;-42
2023/04/09 02:50:53;;;;;;;11.43;6.85;;;4.90;99.90;;;;;;5046097;28;20102;-42
2023/04/09 02:53:20;;;;;;;10.02;6.38;;;4.90;99.90;;;;;;5045954;28;20060;-42
2023/04/09 02:55:46;;;;;;;10.27;6.45;;;4.90;99.90;;;;;;5042838;28;20036;-42
2023/04/09 02:58:12;;;;;;;10.20;6.53;;;5.00;99.90;;;;;;5039259;28;20020;-42
2023/04/09 03:00:37;;;;;;;10.13;6.75;;;4.90;99.90;;;;;;5036008;28;20360;-42
2023/04/09 03:03:03;;;;;;;10.57;6.75;;;4.90;99.90;;;;;;5041851;28;20800;-43
2023/04/09 03:05:29;;;;;;;11.40;7.40;;;4.90;99.90;;;;;;5045557;28;20045;-42
2023/04/09 03:07:55;;;;;;;11.10;7.20;;;4.90;99.90;;;;;;5049812;28;20036;-42
2023/04/09 03:10:20;;;;;;;13.25;7.82;;;4.80;99.90;;;;;;5050621;28;20039;-42
2023/04/09 03:12:46;;;;;;;10.15;7.22;;;4.90;99.90;;;;;;5044965;28;20025;-42
2023/04/09 03:15:12;;;;;;;12.48;8.02;;;4.90;99.90;;;;;;5040803;28;20064;-42
2023/04/09 03:17:38;;;;;;;11.23;7.63;;;4.90;99.90;;;;;;5045402;28;20067;-42
2023/04/09 03:20:05;;;;;;;10.18;7.32;;;4.80;99.90;;;;;;5041410;28;20434;-42
2023/04/09 03:22:38;;;;;;;8.73;6.40;;;4.80;99.90;;;;;;5041872;28;20036;-43
2023/04/09 03:25:04;;;;;;;10.63;7.03;;;4.80;99.90;;;;;;5046241;28;20024;-43
2023/04/09 03:27:31;;;;;;;12.25;7.15;;;4.80;99.90;;;;;;5047641;28;20038;-43
2023/04/09 03:29:57;;;;;;;10.20;6.53;;;4.80;99.90;;;;;;5042559;28;20025;-43
2023/04/09 03:32:23;;;;;;;8.80;6.18;;;4.80;99.90;;;;;;5040021;28;20090;-43
2023/04/09 03:34:49;;;;;;;9.98;6.70;;;4.80;99.90;;;;;;5041670;28;20486;-43
2023/04/09 03:37:14;;;;;;;8.88;6.25;;;4.80;99.90;;;;;;5049163;28;20036;-43
2023/04/09 03:39:40;;;;;;;8.73;6.03;;;4.80;99.90;;;;;;5044946;28;20056;-43
2023/04/09 03:42:06;;;;;;;8.93;6.43;;;4.80;99.90;;;;;;5047089;28;20083;-43
2023/04/09 03:44:32;;;;;;;12.48;7.10;;;4.80;99.90;;;;;;5046541;28;20017;-43
2023/04/09 03:46:57;;;;;;;11.18;7.03;;;4.60;99.90;;;;;;5045108;28;20028;-43
2023/04/09 03:49:23;;;;;;;13.23;7.38;;;4.50;99.90;;;;;;5042104;28;20102;-43
2023/04/09 03:51:49;;;;;;;14.52;8.45;;;4.50;99.90;;;;;;5044637;28;20098;-43
2023/04/09 03:54:14;;;;;;;47.20;15.55;;;4.60;99.90;;;;;;5043405;28;20035;-43
2023/04/09 03:56:40;;;;;;;23.48;10.07;;;4.60;99.90;;;;;;5047923;28;20080;-43
2023/04/09 03:59:06;;;;;;;30.60;11.13;;;4.60;99.90;;;;;;5046046;28;20116;-43
2023/04/09 04:01:31;;;;;;;33.58;15.27;;;4.60;99.90;;;;;;5046541;28;20104;-43
2023/04/09 04:03:57;;;;;;;86.90;26.13;;;4.50;99.90;;;;;;5043407;28;20036;-42
2023/04/09 04:06:22;;;;;;;119.93;33.38;;;4.60;99.90;;;;;;5041758;28;20029;-42
2023/04/09 04:08:48;;;;;;;45.20;16.98;;;4.50;99.90;;;;;;5041884;28;20026;-43
2023/04/09 04:11:14;;;;;;;22.92;10.13;;;4.50;99.90;;;;;;5040780;28;20037;-42
2023/04/09 04:13:39;;;;;;;12.35;8.13;;;4.30;99.90;;;;;;5044026;28;20029;-42
2023/04/09 04:16:09;;;;;;;14.27;8.43;;;4.10;99.90;;;;;;5040516;28;20032;-42
2023/04/09 04:18:35;;;;;;;15.32;8.23;;;4.10;99.90;;;;;;5047387;28;20036;-42
2023/04/09 04:21:01;;;;;;;11.18;7.75;;;4.10;99.90;;;;;;5044224;28;20036;-42
2023/04/09 04:23:27;;;;;;;11.00;7.30;;;4.10;99.90;;;;;;5041602;28;20042;-43
2023/04/09 04:25:53;;;;;;;13.00;8.48;;;4.20;99.90;;;;;;5033497;28;20096;-42
2023/04/09 04:28:18;;;;;;;13.85;7.85;;;4.30;99.90;;;;;;5044245;28;20091;-42
2023/04/09 04:30:44;;;;;;;11.65;6.88;;;4.30;99.90;;;;;;5044141;28;20029;-42
2023/04/09 04:33:10;;;;;;;11.18;7.55;;;4.40;99.90;;;;;;5039403;28;20033;-44
2023/04/09 04:35:35;;;;;;;13.73;7.30;;;4.40;99.90;;;;;;5043363;28;20025;-43
2023/04/09 04:38:01;;;;;;;12.75;6.90;;;4.40;99.90;;;;;;5035980;28;20094;-43
2023/04/09 04:40:27;;;;;;;11.90;6.22;;;4.40;99.90;;;;;;5038381;28;20030;-43
2023/04/09 04:42:53;;;;;;;10.85;6.50;;;4.30;99.90;;;;;;5040678;28;20086;-43
2023/04/09 04:45:18;;;;;;;11.85;7.28;;;4.40;99.90;;;;;;5041565;28;20098;-43
2023/04/09 04:47:44;;;;;;;8.10;6.22;;;4.40;99.90;;;;;;5045765;28;20025;-43
2023/04/09 04:50:10;;;;;;;10.98;6.18;;;4.40;99.90;;;;;;5044649;28;20037;-43
2023/04/09 04:52:37;;;;;;;11.50;6.82;;;4.30;99.90;;;;;;5046560;28;20139;-43
2023/04/09 04:55:03;;;;;;;10.50;6.68;;;4.30;99.90;;;;;;5040186;28;20454;-42
2023/04/09 04:57:29;;;;;;;9.43;6.97;;;4.30;99.90;;;;;;5033111;28;20109;-42
2023/04/09 04:59:54;;;;;;;13.57;7.90;;;4.30;99.90;;;;;;5048868;28;20064;-42
2023/04/09 05:02:20;;;;;;;15.73;9.55;;;4.30;99.90;;;;;;5041370;28;20403;-42
2023/04/09 05:04:45;;;;;;;15.75;9.68;;;4.20;99.90;;;;;;5038208;28;20061;-42
2023/04/09 05:07:11;;;;;;;17.45;11.05;;;4.00;99.90;;;;;;5036997;28;20048;-42
2023/04/09 05:09:37;;;;;;;19.65;10.80;;;4.10;99.90;;;;;;5034296;28;20025;-42
2023/04/09 05:12:02;;;;;;;16.92;11.00;;;4.20;99.90;;;;;;5037029;28;20379;-42
2023/04/09 05:14:28;;;;;;;24.08;13.82;;;4.20;99.90;;;;;;5037335;28;20482;-42
2023/04/09 05:16:53;;;;;;;24.23;14.52;;;4.30;99.90;;;;;;5043227;28;20399;-42
2023/04/09 05:19:19;;;;;;;24.98;14.48;;;4.30;99.90;;;;;;5049011;28;20040;-42
2023/04/09 05:21:45;;;;;;;26.25;16.15;;;4.40;99.90;;;;;;5048283;28;20029;-42
2023/04/09 05:24:11;;;;;;;26.80;13.93;;;4.50;99.90;;;;;;5040545;28;20035;-42
2023/04/09 05:26:36;;;;;;;23.83;13.73;;;4.50;99.90;;;;;;5047380;28;20033;-42
2023/04/09 05:29:02;;;;;;;26.90;15.98;;;4.50;99.90;;;;;;5041327;28;20033;-42
2023/04/09 05:31:27;;;;;;;26.42;14.18;;;4.60;99.90;;;;;;5045268;28;20036;-42
2023/04/09 05:33:53;;;;;;;24.52;14.70;;;4.60;99.90;;;;;;5039865;28;20040;-41
2023/04/09 05:36:19;;;;;;;27.17;15.63;;;4.60;99.90;;;;;;5047329;28;20065;-42
2023/04/09 05:38:47;;;;;;;24.70;14.32;;;4.70;99.90;;;;;;5038604;28;20033;-42
2023/04/09 05:41:13;;;;;;;22.90;13.40;;;4.70;99.90;;;;;;5042844;28;20033;-42
2023/04/09 05:43:39;;;;;;;27.17;14.88;;;4.70;99.90;;;;;;5047471;28;20509;-42
2023/04/09 05:46:05;;;;;;;25.25;14.90;;;4.80;99.90;;;;;;5038889;28;20037;-42
2023/04/09 05:48:34;;;;;;;28.55;16.52;;;4.80;99.90;;;;;;5046128;28;20398;-42
2023/04/09 05:50:59;;;;;;;;;;;4.80;99.90;;;;;;5048148;28;20459;-42
2023/04/09 05:53:25;;;;;;;25.45;14.15;;;4.80;99.90;;;;;;5031252;28;20480;-43
2023/04/09 05:55:51;;;;;;;23.67;12.73;;;4.80;99.90;;;;;;5041083;28;20040;-42
2023/04/09 05:58:20;;;;;;;25.20;13.20;;;4.90;99.90;;;;;;5037211;28;20385;-42
2023/04/09 06:00:46;;;;;;;22.90;13.15;;;4.90;99.90;;;;;;5040458;28;20086;-43
2023/04/09 06:03:11;;;;;;;24.42;13.32;;;4.90;99.90;;;;;;5046267;28;20541;-43
2023/04/09 06:05:37;;;;;;;26.15;14.73;;;4.90;99.90;;;;;;5043256;28;20040;-43
2023/04/09 06:08:03;;;;;;;26.50;14.18;;;4.90;99.90;;;;;;5040950;28;20032;-43
2023/04/09 06:10:31;;;;;;;24.35;12.73;;;5.00;99.90;;;;;;5036702;28;20036;-43
2023/04/09 06:12:56;;;;;;;28.58;14.52;;;5.10;99.90;;;;;;5044921;28;20679;-43
2023/04/09 06:15:22;;;;;;;24.65;13.98;;;5.20;99.90;;;;;;5036226;28;20037;-43
2023/04/09 06:17:48;;;;;;;29.02;15.23;;;5.30;99.90;;;;;;5044656;28;20119;-43
2023/04/09 06:20:13;;;;;;;30.88;15.18;;;5.30;99.90;;;;;;5040637;28;20028;-43
2023/04/09 06:22:39;;;;;;;24.92;13.75;;;5.30;99.90;;;;;;5043903;28;20017;-43
2023/04/09 06:25:05;;;;;;;30.58;14.02;;;5.20;99.90;;;;;;5044291;28;20033;-43
2023/04/09 06:27:31;;;;;;;27.60;14.38;;;5.20;99.90;;;;;;5045556;28;20025;-43
2023/04/09 06:29:56;;;;;;;29.33;14.60;;;5.20;99.90;;;;;;5043231;28;20029;-43
2023/04/09 06:32:22;;;;;;;23.85;13.23;;;5.30;99.90;;;;;;5038520;28;20426;-43
2023/04/09 06:34:47;;;;;;;27.13;15.25;;;5.30;99.90;;;;;;5039959;28;20073;-43
2023/04/09 06:37:13;;;;;;;27.92;15.32;;;5.40;99.90;;;;;;5046887;28;20623;-43
2023/04/09 06:39:40;;;;;;;28.88;14.77;;;5.40;99.90;;;;;;5050746;28;20024;-43
2023/04/09 06:42:05;;;;;;;29.95;15.52;;;5.40;99.90;;;;;;5042659;28;20131;-43
2023/04/09 06:44:33;;;;;;;31.20;15.90;;;5.60;99.90;;;;;;5044172;28;20039;-43
2023/04/09 06:46:58;;;;;;;26.88;14.80;;;5.70;99.90;;;;;;5046309;28;20044;-43
2023/04/09 06:49:24;;;;;;;32.25;16.73;;;5.60;99.90;;;;;;5050172;28;20029;-43
2023/04/09 06:51:52;;;;;;;28.92;15.80;;;5.60;99.90;;;;;;5044314;28;20482;-43
2023/04/09 06:54:18;;;;;;;30.53;16.30;;;5.60;99.90;;;;;;5046389;28;20041;-40
2023/04/09 06:56:44;;;;;;;32.47;16.38;;;5.80;99.90;;;;;;5050784;28;20055;-42
2023/04/09 06:59:10;;;;;;;28.30;15.77;;;5.80;99.90;;;;;;5043595;28;20107;-42
2023/04/09 07:01:36;;;;;;;29.48;15.90;;;5.80;99.90;;;;;;5047879;28;20040;-42
2023/04/09 07:04:02;;;;;;;31.35;16.30;;;5.80;99.90;;;;;;5048181;28;20254;-41
2023/04/09 07:06:28;;;;;;;26.00;14.60;;;5.80;99.90;;;;;;5047420;28;20052;-41
2023/04/09 07:08:54;;;;;;;27.67;14.82;;;5.90;99.90;;;;;;5046292;28;20076;-42
2023/04/09 07:11:20;;;;;;;31.02;16.20;;;6.00;99.90;;;;;;5052475;28;20104;-42
2023/04/09 07:13:45;;;;;;;33.08;17.33;;;6.20;99.90;;;;;;5047753;28;20156;-42
2023/04/09 07:16:11;;;;;;;27.50;14.27;;;6.30;99.90;;;;;;5048913;28;20169;-42
2023/04/09 07:18:37;;;;;;;27.48;15.32;;;6.30;99.90;;;;;;5047192;28;20036;-42
2023/04/09 07:21:03;;;;;;;32.45;17.90;;;6.40;99.90;;;;;;5047691;28;20025;-41
2023/04/09 07:23:28;;;;;;;27.90;14.93;;;6.60;99.90;;;;;;5046696;28;20383;-41
2023/04/09 07:25:54;;;;;;;25.15;15.45;;;6.70;99.90;;;;;;5048406;28;20063;-41
2023/04/09 07:28:20;;;;;;;31.60;16.15;;;6.70;99.90;;;;;;5061281;28;20029;-41
2023/04/09 07:30:46;;;;;;;28.55;15.50;;;6.80;99.90;;;;;;5050562;28;21392;-42
2023/04/09 07:33:11;;;;;;;27.27;14.02;;;6.80;99.90;;;;;;5043259;28;20120;-42
2023/04/09 07:35:37;;;;;;;24.52;13.23;;;7.00;99.90;;;;;;5048271;28;20032;-42
2023/04/09 07:38:03;;;;;;;20.83;10.90;;;7.10;99.90;;;;;;5048286;28;20032;-42
2023/04/09 07:40:28;;;;;;;24.33;13.32;;;7.20;99.90;;;;;;5045744;28;20051;-42
2023/04/09 07:42:54;;;;;;;15.80;9.93;;;7.20;99.90;;;;;;5046237;28;20025;-42
2023/04/09 07:45:20;;;;;;;20.80;11.60;;;7.20;99.90;;;;;;5066254;28;20147;-42
2023/04/09 07:47:46;;;;;;;19.58;10.52;;;7.30;99.90;;;;;;5044616;28;20174;-42
2023/04/09 07:50:11;;;;;;;19.08;10.70;;;7.30;99.90;;;;;;5044574;28;20067;-41
2023/04/09 07:52:37;;;;;;;19.17;10.70;;;7.20;99.90;;;;;;5047041;28;20053;-41
2023/04/09 07:55:03;;;;;;;16.98;9.38;;;7.30;99.90;;;;;;5046982;28;20107;-41
2023/04/09 07:57:32;;;;;;;17.70;11.63;;;7.60;99.90;;;;;;5045519;28;20036;-42
2023/04/09 07:59:58;;;;;;;18.48;10.77;;;7.70;99.90;;;;;;5043856;28;20078;-42
2023/04/09 08:02:23;;;;;;;17.83;10.93;;;7.70;99.90;;;;;;5042180;28;20065;-42
2023/04/09 08:04:49;;;;;;;20.38;11.25;;;7.50;99.90;;;;;;5044630;28;20025;-42
2023/04/09 08:07:15;;;;;;;16.98;10.90;;;7.40;99.90;;;;;;5049012;28;20033;-42
2023/04/09 08:09:41;;;;;;;18.48;11.02;;;7.50;99.90;;;;;;5048903;28;20059;-42
2023/04/09 08:12:07;;;;;;;19.55;10.10;;;7.70;99.90;;;;;;5046086;28;20444;-41
2023/04/09 08:14:32;;;;;;;16.08;9.00;;;8.10;99.90;;;;;;5037862;28;20033;-42
2023/04/09 08:16:59;;;;;;;15.52;9.35;;;8.40;99.90;;;;;;5063685;28;20056;-42
2023/04/09 08:19:25;;;;;;;19.42;10.98;;;8.10;99.90;;;;;;5049427;28;20151;-42
2023/04/09 08:21:51;;;;;;;18.13;10.90;;;7.90;99.90;;;;;;5046576;28;20119;-42
2023/04/09 08:24:17;;;;;;;15.50;9.68;;;7.90;99.90;;;;;;5046631;28;20074;-43
2023/04/09 08:26:43;;;;;;;18.38;10.43;;;8.00;99.90;;;;;;5043519;28;20406;-42
2023/04/09 08:29:11;;;;;;;15.30;9.23;;;7.90;99.90;;;;;;5047672;28;20384;-43
2023/04/09 08:31:38;;;;;;;18.52;10.30;;;7.70;99.90;;;;;;5044232;28;20056;-43
2023/04/09 08:34:04;;;;;;;17.40;10.98;;;7.50;99.90;;;;;;5041525;28;20549;-43
2023/04/09 08:36:30;;;;;;;13.45;9.32;;;7.50;99.90;;;;;;5041690;28;20055;-43
2023/04/09 08:38:56;;;;;;;17.52;10.25;;;7.80;99.90;;;;;;5042961;28;20122;-42
2023/04/09 08:41:24;;;;;;;19.40;10.77;;;8.10;99.90;;;;;;5047377;28;20541;-43
2023/04/09 08:43:51;;;;;;;13.75;8.70;;;8.30;99.90;;;;;;5047637;28;20091;-43
2023/04/09 08:46:18;;;;;;;16.60;10.38;;;8.30;99.90;;;;;;5040055;28;20021;-42
2023/04/09 08:48:45;;;;;;;15.55;9.43;;;8.40;99.90;;;;;;5045091;28;20691;-42
2023/04/09 08:51:18;;;;;;;15.98;10.48;;;8.60;99.90;;;;;;5042237;28;20395;-42
2023/04/09 08:53:52;;;;;;;12.25;9.00;;;8.80;99.90;;;;;;5043342;28;20395;-42
2023/04/09 08:56:18;;;;;;;15.30;9.73;;;8.90;99.90;;;;;;5039720;28;20112;-43
2023/04/09 08:58:45;;;;;;;16.40;10.63;;;8.70;99.90;;;;;;5044346;28;20114;-43
2023/04/09 09:01:26;;;;;;;15.77;9.70;;;8.50;99.90;;;;;;5043953;28;20025;-42
2023/04/09 09:03:54;;;;;;;16.45;10.48;;;8.50;99.90;;;;;;5038496;28;20465;-42
2023/04/09 09:06:21;;;;;;;14.55;9.75;;;8.80;99.90;;;;;;5040136;28;20390;-42
2023/04/09 09:09:03;;;;;;;14.02;9.75;;;9.20;99.90;;;;;;5038101;28;20743;-43
2023/04/09 09:11:31;;;;;;;14.07;8.52;;;9.00;99.90;;;;;;5040341;28;20039;-43
2023/04/09 09:14:02;;;;;;;12.02;8.00;;;8.70;99.90;;;;;;5036040;28;20033;-42
2023/04/09 09:16:28;;;;;;;16.17;8.05;;;8.90;99.90;;;;;;5042886;28;20111;-43
2023/04/09 09:18:57;;;;;;;12.57;6.97;;;9.20;99.90;;;;;;5055964;28;20040;-42
2023/04/09 09:21:25;;;;;;;10.60;6.85;;;9.50;99.90;;;;;;5046071;28;20028;-42
2023/04/09 09:23:50;;;;;;;7.43;5.50;;;9.70;99.90;;;;;;5041706;28;20112;-42
2023/04/09 09:26:24;;;;;;;10.52;6.93;;;9.60;99.90;;;;;;5047597;28;20036;-42
2023/04/09 09:28:51;;;;;;;10.48;6.85;;;9.40;99.90;;;;;;5037873;28;20035;-42
2023/04/09 09:31:18;;;;;;;12.88;7.97;;;9.60;99.90;;;;;;5042240;28;20032;-43
2023/04/09 09:33:45;;;;;;;11.37;8.07;;;9.60;99.90;;;;;;5039505;28;20116;-42
2023/04/09 09:36:11;;;;;;;11.50;8.20;;;9.70;99.90;;;;;;5047847;28;20307;-42
2023/04/09 09:39:00;;;;;;;11.07;7.65;;;9.50;99.90;;;;;;5039003;28;20040;-43
2023/04/09 09:41:27;;;;;;;12.38;8.93;;;9.50;99.90;;;;;;5044735;28;20017;-42
2023/04/09 09:43:52;;;;;;;13.10;8.50;;;9.70;99.90;;;;;;5037517;28;20498;-43
2023/04/09 09:46:20;;;;;;;12.25;8.23;;;9.70;99.90;;;;;;5040796;28;20028;-42
2023/04/09 09:48:46;;;;;;;11.30;8.40;;;9.60;99.90;;;;;;5040012;28;20028;-42
2023/04/09 09:51:14;;;;;;;12.05;8.02;;;9.70;99.90;;;;;;5044037;28;20050;-43
2023/04/09 09:53:42;;;;;;;11.50;7.03;;;9.80;99.90;;;;;;5040019;28;20502;-42
2023/04/09 09:56:18;;;;;;;13.18;8.00;;;9.80;99.90;;;;;;5048132;28;20037;-42
2023/04/09 09:59:02;;;;;;;12.80;8.32;;;9.80;99.90;;;;;;5042933;28;20315;-42
2023/04/09 10:01:28;;;;;;;13.50;10.40;;;9.70;99.90;;;;;;5040365;28;20036;-42
2023/04/09 10:03:55;;;;;;;11.40;7.80;;;10.10;99.90;;;;;;5043328;28;20488;-43
2023/04/09 10:06:22;;;;;;;14.32;10.10;;;10.30;99.90;;;;;;5044313;28;20124;-43
2023/04/09 10:08:51;;;;;;;15.13;8.65;;;10.40;99.90;;;;;;5037168;28;20036;-42
2023/04/09 10:11:18;;;;;;;12.35;7.97;;;9.80;99.90;;;;;;5050076;28;20025;-42
2023/04/09 10:13:55;;;;;;;12.40;8.63;;;9.70;99.90;;;;;;5043059;28;20037;-43
2023/04/09 10:16:22;;;;;;;12.65;8.20;;;10.10;99.90;;;;;;5044724;28;20387;-42
2023/04/09 10:18:47;;;;;;;11.73;7.88;;;10.20;99.90;;;;;;5056180;28;20104;-42
2023/04/09 10:21:28;;;;;;;14.13;9.35;;;10.40;99.90;;;;;;5037321;28;20377;-42
2023/04/09 10:23:55;;;;;;;13.82;9.20;;;10.40;99.90;;;;;;5037185;28;20494;-42
2023/04/09 10:26:26;;;;;;;11.55;8.95;;;10.10;99.90;;;;;;5047477;28;20377;-42
2023/04/09 10:29:08;;;;;;;12.73;8.73;;;9.70;99.90;;;;;;5041481;28;20030;-42
2023/04/09 10:32:02;;;;;;;15.93;10.60;;;10.00;99.90;;;;;;5042709;28;20379;-42
2023/04/09 10:34:28;;;;;;;13.70;8.55;;;10.40;99.90;;;;;;5042651;28;20104;-42
2023/04/09 10:37:01;;;;;;;10.98;7.78;;;10.40;99.90;;;;;;5048769;28;20472;-42
2023/04/09 10:39:29;;;;;;;10.27;7.53;;;10.60;98.30;;;;;;5041179;28;20102;-42
2023/04/09 10:41:58;;;;;;;11.95;8.13;;;10.80;99.90;;;;;;5046537;28;20079;-42
2023/04/09 10:44:25;;;;;;;11.07;6.97;;;10.90;99.90;;;;;;5041380;28;20403;-42
2023/04/09 10:46:55;;;;;;;12.65;8.32;;;10.60;97.20;;;;;;5051557;28;20032;-43
2023/04/09 10:49:22;;;;;;;12.95;8.55;;;10.30;98.10;;;;;;5044947;28;20036;-42
2023/04/09 10:52:04;;;;;;;11.75;8.23;;;10.60;99.90;;;;;;5050044;28;20182;-42
2023/04/09 10:54:32;;;;;;;9.40;6.75;;;10.80;97.80;;;;;;5052767;28;20033;-42
2023/04/09 10:57:06;;;;;;;;;;;10.60;91.70;;;;;;5041687;28;20623;-42
2023/04/09 10:59:40;;;;;;;11.70;7.85;;;10.30;92.10;;;;;;5041618;28;20634;-42
2023/04/09 11:02:27;;;;;;;10.68;6.80;;;10.20;94.90;;;;;;5042215;28;20029;-42
2023/04/09 11:05:07;;;;;;;12.10;8.60;;;10.60;99.90;;;;;;5042521;28;20036;-42
2023/04/09 11:07:39;;;;;;;15.82;10.48;;;11.00;93.90;;;;;;5041171;28;20064;-42
2023/04/09 11:10:05;;;;;;;11.27;8.60;;;10.80;99.70;;;;;;5047769;28;20447;-42
2023/04/09 11:12:32;;;;;;;12.35;9.07;;;11.00;93.60;;;;;;5038090;28;20025;-43
2023/04/09 11:14:57;;;;;;;11.65;8.18;;;10.60;96.80;;;;;;5046948;28;20033;-43
2023/04/09 11:17:23;;;;;;;11.52;7.75;;;10.30;97.80;;;;;;5068417;28;20379;-42
2023/04/09 11:19:49;;;;;;;11.77;8.18;;;10.40;96.00;;;;;;5047003;28;20016;-42
2023/04/09 11:22:15;;;;;;;12.25;8.38;;;11.00;99.90;;;;;;5043848;28;20022;-42
2023/04/09 11:24:49;;;;;;;12.15;7.70;;;10.90;99.90;;;;;;5046556;28;20546;-42
2023/04/09 11:27:18;;;;;;;9.75;7.30;;;10.70;93.70;;;;;;5041692;28;20021;-43
2023/04/09 11:29:44;;;;;;;;;;;10.50;86.10;;;;;;5053411;28;20036;-42
2023/04/09 11:32:11;;;;;;;13.85;8.20;;;10.50;92.80;;;;;;5029543;28;19928;-43
2023/04/09 11:34:37;;;;;;;12.23;8.00;;;10.40;97.20;;;;;;5046880;28;20034;-42
2023/04/09 11:37:07;;;;;;;11.75;7.72;;;10.30;96.60;;;;;;5048117;28;20040;-43
2023/04/09 11:39:36;;;;;;;13.40;7.40;;;10.20;98.10;;;;;;5047037;28;20048;-43
2023/04/09 11:42:02;;;;;;;13.77;9.00;;;10.20;95.00;;;;;;5045657;28;20352;-42
2023/04/09 11:44:29;;;;;;;12.30;8.15;;;10.20;96.70;;;;;;5049332;28;20027;-42
2023/04/09 11:46:56;;;;;;;13.80;8.60;;;10.10;98.50;;;;;;5043379;28;20484;-42
2023/04/09 11:49:22;;;;;;;12.52;8.27;;;10.10;94.00;;;;;;5044414;28;20044;-42
2023/04/09 11:51:49;;;;;;;10.80;7.53;;;10.20;96.90;;;;;;5053387;28;20504;-43
2023/04/09 11:54:15;;;;;;;13.52;7.63;;;10.40;99.90;;;;;;5048567;28;20025;-42
2023/04/09 11:56:41;;;;;;;11.75;7.53;;;10.70;95.30;;;;;;5050567;28;20441;-43
2023/04/09 11:59:07;;;;;;;12.98;8.60;;;10.60;92.70;;;;;;5042683;28;20022;-43
2023/04/09 12:01:33;;;;;;;11.73;7.40;;;10.60;90.60;;;;;;5043259;28;20608;-43
2023/04/09 12:03:59;;;;;;;10.15;7.22;;;10.80;92.50;;;;;;5051030;28;20544;-42
2023/04/09 12:06:26;;;;;;;11.00;6.90;;;10.90;93.40;;;;;;5038749;28;20473;-43
2023/04/09 12:08:58;;;;;;;9.70;6.20;;;11.00;90.00;;;;;;5044375;28;20025;-43
2023/04/09 12:11:28;;;;;;;11.10;6.25;;;11.30;82.90;;;;;;5037609;28;20044;-42
2023/04/09 12:14:01;;;;;;;10.00;6.78;;;11.30;78.30;;;;;;5044396;28;20033;-42
2023/04/09 12:16:31;;;;;;;10.27;6.78;;;11.30;81.20;;;;;;5042628;28;20129;-43
2023/04/09 12:19:06;;;;;;;10.52;7.00;;;11.30;87.20;;;;;;5046355;28;20044;-43
2023/04/09 12:21:51;;;;;;;10.57;7.00;;;11.50;86.30;;;;;;5037493;28;20234;-43
2023/04/09 12:24:19;;;;;;;10.23;7.07;;;11.30;78.50;;;;;;5040779;28;20040;-43
2023/04/09 12:26:45;;;;;;;12.63;7.57;;;10.90;83.50;;;;;;5039616;28;20064;-43
2023/04/09 12:29:16;;;;;;;9.85;6.80;;;10.90;82.40;;;;;;5040627;28;20040;-43
2023/04/09 12:31:42;;;;;;;10.15;6.20;;;11.10;79.80;;;;;;5044549;28;20041;-43
2023/04/09 12:34:08;;;;;;;9.63;6.45;;;11.20;74.80;;;;;;5064348;28;20056;-43
2023/04/09 12:36:34;;;;;;;8.80;5.80;;;11.30;84.00;;;;;;5046481;28;20087;-43
2023/04/09 12:39:00;;;;;;;8.88;6.28;;;11.50;75.90;;;;;;5042941;28;20032;-43
2023/04/09 12:41:25;;;;;;;9.48;5.80;;;11.70;75.80;;;;;;5039399;28;20226;-43
2023/04/09 12:43:51;;;;;;;9.43;5.88;;;11.80;67.50;;;;;;5042777;28;20070;-43
2023/04/09 12:46:18;;;;;;;8.48;6.15;;;11.50;78.50;;;;;;5039503;28;20040;-43
2023/04/09 12:48:44;;;;;;;8.07;5.55;;;11.60;74.90;;;;;;5041983;28;20717;-43